Windsor, Indiana
Current Conditions -  °F | °C
As of 7:34 PM on Tuesday 25 Nov 2014 (Local Time) from KMIE Reporting Station
Overcast Overcast  
Wind Chill: 29°   Ceiling: 1400
Heat Index: 29°   Visibility: 10mi
Dew Point: 23°   Wind: 3mph
Humidity: 78%   Direction: 270°W
Pressure: 30.18"   Gusts: NA
Location:  40.2107°N, 85.182°W
Report Text: KMIE 260034Z 27003KT 10SM OVC014 M02/M05 A3018 RMK AO2 T10171050
Loading
Personal Weather Stations






























Interactive Weather Map New forecast layout! Learn more

10-Day Weather Forecast

Advertisements
Track Severe Weather on mobile